sensor_id;sensor_type;location;lat;lon;timestamp;P1;durP1;ratioP1;P2;durP2;ratioP2
16193;SDS011;8204;53.582;10.080;2023-06-10T00:02:07;8.60;;;5.57;;
16193;SDS011;8204;53.582;10.080;2023-06-10T00:04:33;6.93;;;5.70;;
16193;SDS011;8204;53.582;10.080;2023-06-10T00:06:59;5.83;;;5.13;;
16193;SDS011;8204;53.582;10.080;2023-06-10T00:09:25;9.23;;;5.23;;
16193;SDS011;8204;53.582;10.080;2023-06-10T00:11:50;5.80;;;5.20;;
16193;SDS011;8204;53.582;10.080;2023-06-10T00:14:16;6.83;;;5.47;;
16193;SDS011;8204;53.582;10.080;2023-06-10T00:16:41;7.20;;;6.47;;
16193;SDS011;8204;53.582;10.080;2023-06-10T00:19:10;9.13;;;6.27;;
16193;SDS011;8204;53.582;10.080;2023-06-10T00:21:39;5.63;;;5.13;;
16193;SDS011;8204;53.582;10.080;2023-06-10T00:24:10;6.20;;;5.53;;
16193;SDS011;8204;53.582;10.080;2023-06-10T00:26:40;7.63;;;5.20;;
16193;SDS011;8204;53.582;10.080;2023-06-10T00:29:07;5.90;;;5.13;;
16193;SDS011;8204;53.582;10.080;2023-06-10T00:31:36;9.03;;;5.43;;
16193;SDS011;8204;53.582;10.080;2023-06-10T00:34:02;5.97;;;5.40;;
16193;SDS011;8204;53.582;10.080;2023-06-10T00:36:33;8.80;;;5.67;;
16193;SDS011;8204;53.582;10.080;2023-06-10T00:39:04;5.33;;;4.83;;
16193;SDS011;8204;53.582;10.080;2023-06-10T00:41:30;5.77;;;4.50;;
16193;SDS011;8204;53.582;10.080;2023-06-10T00:43:57;9.00;;;5.17;;
16193;SDS011;8204;53.582;10.080;2023-06-10T00:46:22;7.27;;;5.07;;
16193;SDS011;8204;53.582;10.080;2023-06-10T00:48:51;5.90;;;4.93;;
16193;SDS011;8204;53.582;10.080;2023-06-10T00:51:18;8.50;;;4.77;;
16193;SDS011;8204;53.582;10.080;2023-06-10T00:53:44;5.00;;;4.30;;
16193;SDS011;8204;53.582;10.080;2023-06-10T00:56:10;7.53;;;5.43;;
16193;SDS011;8204;53.582;10.080;2023-06-10T00:58:35;5.77;;;4.47;;
16193;SDS011;8204;53.582;10.080;2023-06-10T01:01:01;5.13;;;4.63;;
16193;SDS011;8204;53.582;10.080;2023-06-10T01:03:29;8.43;;;5.30;;
16193;SDS011;8204;53.582;10.080;2023-06-10T01:06:04;6.00;;;4.63;;
16193;SDS011;8204;53.582;10.080;2023-06-10T01:08:36;6.70;;;4.47;;
16193;SDS011;8204;53.582;10.080;2023-06-10T01:11:13;5.87;;;3.90;;
16193;SDS011;8204;53.582;10.080;2023-06-10T01:13:45;4.60;;;4.23;;
16193;SDS011;8204;53.582;10.080;2023-06-10T01:16:11;5.23;;;4.27;;
16193;SDS011;8204;53.582;10.080;2023-06-10T01:18:37;6.33;;;4.97;;
16193;SDS011;8204;53.582;10.080;2023-06-10T01:21:03;12.90;;;4.37;;
16193;SDS011;8204;53.582;10.080;2023-06-10T01:23:29;6.40;;;3.93;;
16193;SDS011;8204;53.582;10.080;2023-06-10T01:26:02;5.27;;;4.57;;
16193;SDS011;8204;53.582;10.080;2023-06-10T01:31:29;9.10;;;4.83;;
16193;SDS011;8204;53.582;10.080;2023-06-10T01:34:15;6.93;;;4.63;;
16193;SDS011;8204;53.582;10.080;2023-06-10T01:36:47;7.43;;;4.50;;
16193;SDS011;8204;53.582;10.080;2023-06-10T01:39:14;9.13;;;4.97;;
16193;SDS011;8204;53.582;10.080;2023-06-10T01:41:46;5.97;;;4.63;;
16193;SDS011;8204;53.582;10.080;2023-06-10T01:44:17;5.70;;;4.20;;
16193;SDS011;8204;53.582;10.080;2023-06-10T01:46:43;4.97;;;4.43;;
16193;SDS011;8204;53.582;10.080;2023-06-10T01:49:08;4.40;;;4.00;;
16193;SDS011;8204;53.582;10.080;2023-06-10T01:51:34;7.97;;;4.00;;
16193;SDS011;8204;53.582;10.080;2023-06-10T01:53:59;5.17;;;4.27;;
16193;SDS011;8204;53.582;10.080;2023-06-10T01:56:25;8.03;;;4.60;;
16193;SDS011;8204;53.582;10.080;2023-06-10T01:58:51;6.27;;;4.37;;
16193;SDS011;8204;53.582;10.080;2023-06-10T02:01:20;5.63;;;4.20;;
16193;SDS011;8204;53.582;10.080;2023-06-10T02:03:45;5.10;;;3.90;;
16193;SDS011;8204;53.582;10.080;2023-06-10T02:06:10;6.83;;;4.10;;
16193;SDS011;8204;53.582;10.080;2023-06-10T02:08:36;5.70;;;4.13;;
16193;SDS011;8204;53.582;10.080;2023-06-10T02:11:01;6.47;;;4.47;;
16193;SDS011;8204;53.582;10.080;2023-06-10T02:13:27;5.00;;;4.13;;
16193;SDS011;8204;53.582;10.080;2023-06-10T02:15:53;4.87;;;3.83;;
16193;SDS011;8204;53.582;10.080;2023-06-10T02:18:19;4.50;;;4.00;;
16193;SDS011;8204;53.582;10.080;2023-06-10T02:20:46;6.93;;;3.57;;
16193;SDS011;8204;53.582;10.080;2023-06-10T02:23:11;5.03;;;3.93;;
16193;SDS011;8204;53.582;10.080;2023-06-10T02:25:37;4.63;;;3.80;;
16193;SDS011;8204;53.582;10.080;2023-06-10T02:28:02;6.07;;;4.20;;
16193;SDS011;8204;53.582;10.080;2023-06-10T02:30:28;4.93;;;3.80;;
16193;SDS011;8204;53.582;10.080;2023-06-10T02:32:53;7.37;;;5.03;;
16193;SDS011;8204;53.582;10.080;2023-06-10T02:35:21;3.73;;;3.43;;
16193;SDS011;8204;53.582;10.080;2023-06-10T02:37:49;6.40;;;4.23;;
16193;SDS011;8204;53.582;10.080;2023-06-10T02:40:15;5.63;;;4.03;;
16193;SDS011;8204;53.582;10.080;2023-06-10T02:42:41;5.17;;;3.37;;
16193;SDS011;8204;53.582;10.080;2023-06-10T02:45:07;5.87;;;3.73;;
16193;SDS011;8204;53.582;10.080;2023-06-10T02:47:33;5.73;;;3.53;;
16193;SDS011;8204;53.582;10.080;2023-06-10T02:49:58;8.30;;;3.53;;
16193;SDS011;8204;53.582;10.080;2023-06-10T02:52:23;7.40;;;4.17;;
16193;SDS011;8204;53.582;10.080;2023-06-10T02:54:50;4.87;;;3.57;;
16193;SDS011;8204;53.582;10.080;2023-06-10T02:57:15;8.60;;;3.63;;
16193;SDS011;8204;53.582;10.080;2023-06-10T02:59:41;4.10;;;3.70;;
16193;SDS011;8204;53.582;10.080;2023-06-10T03:02:06;4.03;;;3.60;;
16193;SDS011;8204;53.582;10.080;2023-06-10T03:04:32;4.07;;;3.57;;
16193;SDS011;8204;53.582;10.080;2023-06-10T03:06:58;6.30;;;3.47;;
16193;SDS011;8204;53.582;10.080;2023-06-10T03:09:25;6.77;;;4.50;;
16193;SDS011;8204;53.582;10.080;2023-06-10T03:11:51;3.97;;;3.27;;
16193;SDS011;8204;53.582;10.080;2023-06-10T03:14:16;6.03;;;4.00;;
16193;SDS011;8204;53.582;10.080;2023-06-10T03:16:41;5.33;;;4.30;;
16193;SDS011;8204;53.582;10.080;2023-06-10T03:19:07;6.73;;;3.60;;
16193;SDS011;8204;53.582;10.080;2023-06-10T03:21:34;4.93;;;3.43;;
16193;SDS011;8204;53.582;10.080;2023-06-10T03:24:00;5.53;;;3.40;;
16193;SDS011;8204;53.582;10.080;2023-06-10T03:26:26;4.87;;;3.13;;
16193;SDS011;8204;53.582;10.080;2023-06-10T03:28:52;5.20;;;3.53;;
16193;SDS011;8204;53.582;10.080;2023-06-10T03:31:18;4.40;;;3.40;;
16193;SDS011;8204;53.582;10.080;2023-06-10T03:33:43;3.60;;;3.07;;
16193;SDS011;8204;53.582;10.080;2023-06-10T03:36:09;7.10;;;4.00;;
16193;SDS011;8204;53.582;10.080;2023-06-10T03:38:36;7.50;;;3.87;;
16193;SDS011;8204;53.582;10.080;2023-06-10T03:41:01;4.43;;;2.80;;
16193;SDS011;8204;53.582;10.080;2023-06-10T03:43:27;4.60;;;2.70;;
16193;SDS011;8204;53.582;10.080;2023-06-10T03:45:52;4.27;;;2.87;;
16193;SDS011;8204;53.582;10.080;2023-06-10T03:48:18;5.77;;;3.50;;
16193;SDS011;8204;53.582;10.080;2023-06-10T03:50:43;5.10;;;3.30;;
16193;SDS011;8204;53.582;10.080;2023-06-10T03:53:09;3.87;;;2.73;;
16193;SDS011;8204;53.582;10.080;2023-06-10T03:55:34;7.60;;;4.33;;
16193;SDS011;8204;53.582;10.080;2023-06-10T03:58:01;5.33;;;2.80;;
16193;SDS011;8204;53.582;10.080;2023-06-10T04:00:26;8.93;;;3.97;;
16193;SDS011;8204;53.582;10.080;2023-06-10T04:02:52;4.90;;;3.60;;
16193;SDS011;8204;53.582;10.080;2023-06-10T04:05:18;9.87;;;3.67;;
16193;SDS011;8204;53.582;10.080;2023-06-10T04:07:47;8.77;;;3.10;;
16193;SDS011;8204;53.582;10.080;2023-06-10T04:10:14;5.67;;;3.30;;
16193;SDS011;8204;53.582;10.080;2023-06-10T04:12:39;3.97;;;3.07;;
16193;SDS011;8204;53.582;10.080;2023-06-10T04:15:06;4.30;;;2.87;;
16193;SDS011;8204;53.582;10.080;2023-06-10T04:17:33;5.00;;;3.07;;
16193;SDS011;8204;53.582;10.080;2023-06-10T04:19:58;6.63;;;3.37;;
16193;SDS011;8204;53.582;10.080;2023-06-10T04:22:24;4.23;;;2.80;;
16193;SDS011;8204;53.582;10.080;2023-06-10T04:24:50;6.57;;;3.70;;
16193;SDS011;8204;53.582;10.080;2023-06-10T04:27:16;9.67;;;3.63;;
16193;SDS011;8204;53.582;10.080;2023-06-10T04:29:42;3.67;;;2.90;;
16193;SDS011;8204;53.582;10.080;2023-06-10T04:32:07;6.10;;;3.50;;
16193;SDS011;8204;53.582;10.080;2023-06-10T04:34:33;4.10;;;2.97;;
16193;SDS011;8204;53.582;10.080;2023-06-10T04:37:00;6.17;;;3.60;;
16193;SDS011;8204;53.582;10.080;2023-06-10T04:39:25;3.83;;;2.97;;
16193;SDS011;8204;53.582;10.080;2023-06-10T04:41:51;4.27;;;3.00;;
16193;SDS011;8204;53.582;10.080;2023-06-10T04:44:16;5.63;;;3.70;;
16193;SDS011;8204;53.582;10.080;2023-06-10T04:46:42;3.67;;;2.40;;
16193;SDS011;8204;53.582;10.080;2023-06-10T04:49:07;3.87;;;3.27;;
16193;SDS011;8204;53.582;10.080;2023-06-10T04:51:33;5.97;;;3.27;;
16193;SDS011;8204;53.582;10.080;2023-06-10T04:53:59;5.60;;;2.97;;
16193;SDS011;8204;53.582;10.080;2023-06-10T04:56:29;6.07;;;2.80;;
16193;SDS011;8204;53.582;10.080;2023-06-10T04:58:59;5.63;;;3.40;;
16193;SDS011;8204;53.582;10.080;2023-06-10T05:01:24;6.97;;;3.27;;
16193;SDS011;8204;53.582;10.080;2023-06-10T05:03:50;5.30;;;2.73;;
16193;SDS011;8204;53.582;10.080;2023-06-10T05:06:16;7.07;;;3.10;;
16193;SDS011;8204;53.582;10.080;2023-06-10T05:08:41;5.73;;;2.97;;
16193;SDS011;8204;53.582;10.080;2023-06-10T05:11:06;6.17;;;3.27;;
16193;SDS011;8204;53.582;10.080;2023-06-10T05:13:32;3.87;;;2.97;;
16193;SDS011;8204;53.582;10.080;2023-06-10T05:15:57;4.63;;;3.50;;
16193;SDS011;8204;53.582;10.080;2023-06-10T05:18:23;8.47;;;3.43;;
16193;SDS011;8204;53.582;10.080;2023-06-10T05:20:49;6.33;;;3.30;;
16193;SDS011;8204;53.582;10.080;2023-06-10T05:23:14;6.37;;;2.70;;
16193;SDS011;8204;53.582;10.080;2023-06-10T05:25:40;6.77;;;3.47;;
16193;SDS011;8204;53.582;10.080;2023-06-10T05:28:06;5.00;;;3.53;;
16193;SDS011;8204;53.582;10.080;2023-06-10T05:30:34;5.93;;;2.83;;
16193;SDS011;8204;53.582;10.080;2023-06-10T05:33:00;6.97;;;3.20;;
16193;SDS011;8204;53.582;10.080;2023-06-10T05:35:25;3.17;;;2.50;;
16193;SDS011;8204;53.582;10.080;2023-06-10T05:37:51;9.07;;;3.17;;
16193;SDS011;8204;53.582;10.080;2023-06-10T05:40:16;5.40;;;3.83;;
16193;SDS011;8204;53.582;10.080;2023-06-10T05:42:41;7.77;;;2.90;;
16193;SDS011;8204;53.582;10.080;2023-06-10T05:45:07;5.33;;;2.80;;
16193;SDS011;8204;53.582;10.080;2023-06-10T05:47:33;5.47;;;3.03;;
16193;SDS011;8204;53.582;10.080;2023-06-10T05:49:59;5.53;;;3.00;;
16193;SDS011;8204;53.582;10.080;2023-06-10T05:52:24;4.17;;;3.13;;
16193;SDS011;8204;53.582;10.080;2023-06-10T05:54:51;6.07;;;3.93;;
16193;SDS011;8204;53.582;10.080;2023-06-10T05:57:16;5.17;;;2.87;;
16193;SDS011;8204;53.582;10.080;2023-06-10T05:59:41;5.27;;;2.67;;
16193;SDS011;8204;53.582;10.080;2023-06-10T06:02:07;3.83;;;3.40;;
16193;SDS011;8204;53.582;10.080;2023-06-10T06:04:33;4.90;;;3.40;;
16193;SDS011;8204;53.582;10.080;2023-06-10T06:06:59;7.23;;;3.63;;
16193;SDS011;8204;53.582;10.080;2023-06-10T06:09:24;5.50;;;3.00;;
16193;SDS011;8204;53.582;10.080;2023-06-10T06:11:50;9.60;;;3.30;;
16193;SDS011;8204;53.582;10.080;2023-06-10T06:14:15;6.87;;;3.50;;
16193;SDS011;8204;53.582;10.080;2023-06-10T06:16:40;5.07;;;3.40;;
16193;SDS011;8204;53.582;10.080;2023-06-10T06:19:06;6.27;;;3.07;;
16193;SDS011;8204;53.582;10.080;2023-06-10T06:21:31;7.23;;;2.97;;
16193;SDS011;8204;53.582;10.080;2023-06-10T06:23:57;3.73;;;2.60;;
16193;SDS011;8204;53.582;10.080;2023-06-10T06:26:23;5.93;;;3.73;;
16193;SDS011;8204;53.582;10.080;2023-06-10T06:28:48;6.40;;;3.70;;
16193;SDS011;8204;53.582;10.080;2023-06-10T06:31:14;8.00;;;3.60;;
16193;SDS011;8204;53.582;10.080;2023-06-10T06:33:39;5.60;;;3.23;;
16193;SDS011;8204;53.582;10.080;2023-06-10T06:36:05;7.00;;;3.00;;
16193;SDS011;8204;53.582;10.080;2023-06-10T06:38:30;8.20;;;4.17;;
16193;SDS011;8204;53.582;10.080;2023-06-10T06:40:55;5.73;;;3.17;;
16193;SDS011;8204;53.582;10.080;2023-06-10T06:43:21;5.50;;;3.50;;
16193;SDS011;8204;53.582;10.080;2023-06-10T06:45:46;9.93;;;3.63;;
16193;SDS011;8204;53.582;10.080;2023-06-10T06:48:12;6.00;;;3.53;;
16193;SDS011;8204;53.582;10.080;2023-06-10T06:50:37;5.03;;;3.63;;
16193;SDS011;8204;53.582;10.080;2023-06-10T06:53:03;5.80;;;3.20;;
16193;SDS011;8204;53.582;10.080;2023-06-10T06:55:29;4.80;;;3.53;;
16193;SDS011;8204;53.582;10.080;2023-06-10T06:57:54;5.13;;;3.40;;
16193;SDS011;8204;53.582;10.080;2023-06-10T07:00:20;5.03;;;3.20;;
16193;SDS011;8204;53.582;10.080;2023-06-10T07:02:46;8.67;;;3.40;;
16193;SDS011;8204;53.582;10.080;2023-06-10T07:05:11;5.27;;;3.60;;
16193;SDS011;8204;53.582;10.080;2023-06-10T07:07:39;5.37;;;3.43;;
16193;SDS011;8204;53.582;10.080;2023-06-10T07:10:05;4.40;;;3.43;;
16193;SDS011;8204;53.582;10.080;2023-06-10T07:12:31;4.53;;;3.63;;
16193;SDS011;8204;53.582;10.080;2023-06-10T07:14:57;6.33;;;3.23;;
16193;SDS011;8204;53.582;10.080;2023-06-10T07:17:22;6.83;;;4.40;;
16193;SDS011;8204;53.582;10.080;2023-06-10T07:19:48;5.07;;;3.87;;
16193;SDS011;8204;53.582;10.080;2023-06-10T07:22:13;4.47;;;3.70;;
16193;SDS011;8204;53.582;10.080;2023-06-10T07:24:39;5.90;;;4.27;;
16193;SDS011;8204;53.582;10.080;2023-06-10T07:27:04;5.53;;;3.77;;
16193;SDS011;8204;53.582;10.080;2023-06-10T07:29:30;4.47;;;4.07;;
16193;SDS011;8204;53.582;10.080;2023-06-10T07:31:56;7.77;;;3.70;;
16193;SDS011;8204;53.582;10.080;2023-06-10T07:34:21;4.03;;;3.60;;
16193;SDS011;8204;53.582;10.080;2023-06-10T07:36:47;6.90;;;4.37;;
16193;SDS011;8204;53.582;10.080;2023-06-10T07:39:12;7.03;;;4.07;;
16193;SDS011;8204;53.582;10.080;2023-06-10T07:41:37;5.20;;;3.47;;
16193;SDS011;8204;53.582;10.080;2023-06-10T07:44:03;5.40;;;4.17;;
16193;SDS011;8204;53.582;10.080;2023-06-10T07:46:29;8.00;;;3.77;;
16193;SDS011;8204;53.582;10.080;2023-06-10T07:48:54;6.70;;;3.67;;
16193;SDS011;8204;53.582;10.080;2023-06-10T07:51:20;5.37;;;3.77;;
16193;SDS011;8204;53.582;10.080;2023-06-10T07:53:47;9.73;;;4.77;;
16193;SDS011;8204;53.582;10.080;2023-06-10T07:56:12;7.70;;;4.97;;
16193;SDS011;8204;53.582;10.080;2023-06-10T07:58:38;7.60;;;4.13;;
16193;SDS011;8204;53.582;10.080;2023-06-10T08:01:04;7.13;;;4.17;;
16193;SDS011;8204;53.582;10.080;2023-06-10T08:03:29;6.57;;;4.77;;
16193;SDS011;8204;53.582;10.080;2023-06-10T08:05:55;6.70;;;4.97;;
16193;SDS011;8204;53.582;10.080;2023-06-10T08:08:20;7.37;;;4.70;;
16193;SDS011;8204;53.582;10.080;2023-06-10T08:10:45;5.50;;;3.80;;
16193;SDS011;8204;53.582;10.080;2023-06-10T08:13:11;7.13;;;4.60;;
16193;SDS011;8204;53.582;10.080;2023-06-10T08:15:36;4.27;;;3.73;;
16193;SDS011;8204;53.582;10.080;2023-06-10T08:18:01;6.53;;;3.67;;
16193;SDS011;8204;53.582;10.080;2023-06-10T08:20:27;5.70;;;3.97;;
16193;SDS011;8204;53.582;10.080;2023-06-10T08:22:52;6.30;;;4.33;;
16193;SDS011;8204;53.582;10.080;2023-06-10T08:25:17;5.37;;;3.90;;
16193;SDS011;8204;53.582;10.080;2023-06-10T08:27:43;9.60;;;3.90;;
16193;SDS011;8204;53.582;10.080;2023-06-10T08:30:08;6.03;;;3.77;;
16193;SDS011;8204;53.582;10.080;2023-06-10T08:32:36;7.80;;;4.53;;
16193;SDS011;8204;53.582;10.080;2023-06-10T08:35:02;6.97;;;4.57;;
16193;SDS011;8204;53.582;10.080;2023-06-10T08:37:28;9.87;;;4.83;;
16193;SDS011;8204;53.582;10.080;2023-06-10T08:39:54;6.27;;;4.17;;
16193;SDS011;8204;53.582;10.080;2023-06-10T08:44:58;8.50;;;5.10;;
16193;SDS011;8204;53.582;10.080;2023-06-10T08:47:26;7.23;;;5.27;;
16193;SDS011;8204;53.582;10.080;2023-06-10T08:49:56;5.30;;;4.33;;
16193;SDS011;8204;53.582;10.080;2023-06-10T08:52:29;7.10;;;4.53;;
16193;SDS011;8204;53.582;10.080;2023-06-10T08:55:03;5.37;;;4.07;;
16193;SDS011;8204;53.582;10.080;2023-06-10T08:57:35;6.77;;;5.03;;
16193;SDS011;8204;53.582;10.080;2023-06-10T09:00:01;7.00;;;4.60;;
16193;SDS011;8204;53.582;10.080;2023-06-10T09:02:28;5.17;;;4.70;;
16193;SDS011;8204;53.582;10.080;2023-06-10T09:04:53;4.73;;;4.33;;
16193;SDS011;8204;53.582;10.080;2023-06-10T09:07:21;5.80;;;4.40;;
16193;SDS011;8204;53.582;10.080;2023-06-10T09:09:48;7.90;;;5.23;;
16193;SDS011;8204;53.582;10.080;2023-06-10T09:12:14;8.17;;;5.13;;
16193;SDS011;8204;53.582;10.080;2023-06-10T09:14:41;6.00;;;4.67;;
16193;SDS011;8204;53.582;10.080;2023-06-10T09:17:07;9.83;;;4.80;;
16193;SDS011;8204;53.582;10.080;2023-06-10T09:19:32;9.67;;;5.30;;
16193;SDS011;8204;53.582;10.080;2023-06-10T09:21:58;6.70;;;5.40;;
16193;SDS011;8204;53.582;10.080;2023-06-10T09:24:24;7.50;;;5.50;;
16193;SDS011;8204;53.582;10.080;2023-06-10T09:26:50;5.60;;;5.03;;
16193;SDS011;8204;53.582;10.080;2023-06-10T09:29:27;8.13;;;4.50;;
16193;SDS011;8204;53.582;10.080;2023-06-10T09:31:52;7.57;;;4.77;;
16193;SDS011;8204;53.582;10.080;2023-06-10T09:34:18;5.57;;;4.80;;
16193;SDS011;8204;53.582;10.080;2023-06-10T09:36:43;7.70;;;4.23;;
16193;SDS011;8204;53.582;10.080;2023-06-10T09:39:14;11.10;;;4.50;;
16193;SDS011;8204;53.582;10.080;2023-06-10T09:41:44;6.43;;;4.90;;
16193;SDS011;8204;53.582;10.080;2023-06-10T09:44:11;5.93;;;5.43;;
16193;SDS011;8204;53.582;10.080;2023-06-10T09:46:38;15.40;;;8.47;;
16193;SDS011;8204;53.582;10.080;2023-06-10T09:49:04;9.60;;;6.97;;
16193;SDS011;8204;53.582;10.080;2023-06-10T09:51:29;6.90;;;5.63;;
16193;SDS011;8204;53.582;10.080;2023-06-10T09:53:55;7.27;;;5.53;;
16193;SDS011;8204;53.582;10.080;2023-06-10T09:56:21;6.57;;;5.50;;
16193;SDS011;8204;53.582;10.080;2023-06-10T09:58:57;9.63;;;4.80;;
16193;SDS011;8204;53.582;10.080;2023-06-10T10:01:23;7.07;;;4.73;;
16193;SDS011;8204;53.582;10.080;2023-06-10T10:03:50;6.37;;;5.20;;
16193;SDS011;8204;53.582;10.080;2023-06-10T10:06:16;5.37;;;4.70;;
16193;SDS011;8204;53.582;10.080;2023-06-10T10:08:43;5.23;;;4.73;;
16193;SDS011;8204;53.582;10.080;2023-06-10T10:11:10;7.03;;;6.40;;
16193;SDS011;8204;53.582;10.080;2023-06-10T10:13:36;9.07;;;5.27;;
16193;SDS011;8204;53.582;10.080;2023-06-10T10:16:10;5.73;;;5.23;;
16193;SDS011;8204;53.582;10.080;2023-06-10T10:18:39;7.70;;;5.30;;
16193;SDS011;8204;53.582;10.080;2023-06-10T10:21:13;5.80;;;5.30;;
16193;SDS011;8204;53.582;10.080;2023-06-10T10:23:44;5.67;;;5.17;;
16193;SDS011;8204;53.582;10.080;2023-06-10T10:26:17;8.27;;;4.50;;
16193;SDS011;8204;53.582;10.080;2023-06-10T10:28:51;7.00;;;5.87;;
16193;SDS011;8204;53.582;10.080;2023-06-10T10:31:26;7.60;;;4.87;;
16193;SDS011;8204;53.582;10.080;2023-06-10T10:33:59;7.43;;;5.63;;
16193;SDS011;8204;53.582;10.080;2023-06-10T10:36:26;7.10;;;5.77;;
16193;SDS011;8204;53.582;10.080;2023-06-10T10:38:52;5.97;;;4.90;;
16193;SDS011;8204;53.582;10.080;2023-06-10T11:21:13;5.43;;;5.03;;
16193;SDS011;8204;53.582;10.080;2023-06-10T11:28:32;5.77;;;5.20;;
16193;SDS011;8204;53.582;10.080;2023-06-10T11:32:15;8.40;;;6.20;;
16193;SDS011;8204;53.582;10.080;2023-06-10T11:39:32;9.07;;;6.23;;
16193;SDS011;8204;53.582;10.080;2023-06-10T11:43:14;6.80;;;6.07;;
16193;SDS011;8204;53.582;10.080;2023-06-10T11:46:55;6.80;;;6.17;;
16193;SDS011;8204;53.582;10.080;2023-06-10T11:50:39;11.80;;;7.90;;
16193;SDS011;8204;53.582;10.080;2023-06-10T11:58:01;8.47;;;6.73;;
16193;SDS011;8204;53.582;10.080;2023-06-10T12:01:44;6.60;;;5.90;;
16193;SDS011;8204;53.582;10.080;2023-06-10T12:05:24;7.10;;;6.33;;
16193;SDS011;8204;53.582;10.080;2023-06-10T12:16:27;9.03;;;8.17;;
16193;SDS011;8204;53.582;10.080;2023-06-10T12:24:05;8.20;;;7.37;;
16193;SDS011;8204;53.582;10.080;2023-06-10T12:31:23;6.47;;;5.87;;
16193;SDS011;8204;53.582;10.080;2023-06-10T12:35:05;8.57;;;6.00;;
16193;SDS011;8204;53.582;10.080;2023-06-10T12:42:25;9.30;;;7.17;;
16193;SDS011;8204;53.582;10.080;2023-06-10T12:46:08;8.47;;;6.53;;
16193;SDS011;8204;53.582;10.080;2023-06-10T12:53:30;6.47;;;5.83;;
16193;SDS011;8204;53.582;10.080;2023-06-10T13:00:54;7.33;;;6.63;;
16193;SDS011;8204;53.582;10.080;2023-06-10T13:04:36;7.03;;;5.93;;
16193;SDS011;8204;53.582;10.080;2023-06-10T13:15:41;7.63;;;6.30;;
16193;SDS011;8204;53.582;10.080;2023-06-10T13:19:22;7.17;;;6.27;;
16193;SDS011;8204;53.582;10.080;2023-06-10T13:26:46;7.70;;;5.93;;
16193;SDS011;8204;53.582;10.080;2023-06-10T13:34:10;6.80;;;6.20;;
16193;SDS011;8204;53.582;10.080;2023-06-10T13:37:53;5.47;;;4.97;;
16193;SDS011;8204;53.582;10.080;2023-06-10T13:41:35;6.70;;;5.38;;
16193;SDS011;8204;53.582;10.080;2023-06-10T13:52:42;8.45;;;5.47;;
16193;SDS011;8204;53.582;10.080;2023-06-10T13:56:23;6.53;;;5.80;;
16193;SDS011;8204;53.582;10.080;2023-06-10T14:03:46;6.38;;;4.68;;
16193;SDS011;8204;53.582;10.080;2023-06-10T14:07:28;7.70;;;4.97;;
16193;SDS011;8204;53.582;10.080;2023-06-10T14:11:10;10.25;;;4.75;;
16193;SDS011;8204;53.582;10.080;2023-06-10T14:14:53;8.48;;;5.65;;
16193;SDS011;8204;53.582;10.080;2023-06-10T14:22:17;5.60;;;5.05;;
16193;SDS011;8204;53.582;10.080;2023-06-10T14:25:59;5.53;;;4.57;;
16193;SDS011;8204;53.582;10.080;2023-06-10T14:29:40;5.75;;;5.05;;
16193;SDS011;8204;53.582;10.080;2023-06-10T14:37:04;5.30;;;4.90;;
16193;SDS011;8204;53.582;10.080;2023-06-10T14:40:46;5.60;;;4.72;;
16193;SDS011;8204;53.582;10.080;2023-06-10T14:44:28;7.53;;;4.60;;
16193;SDS011;8204;53.582;10.080;2023-06-10T14:51:52;9.30;;;5.15;;
16193;SDS011;8204;53.582;10.080;2023-06-10T14:55:34;7.20;;;5.38;;
16193;SDS011;8204;53.582;10.080;2023-06-10T14:59:16;5.88;;;5.28;;
16193;SDS011;8204;53.582;10.080;2023-06-10T15:06:39;6.50;;;5.82;;
16193;SDS011;8204;53.582;10.080;2023-06-10T15:13:36;5.70;;;4.95;;
16193;SDS011;8204;53.582;10.080;2023-06-10T15:17:05;6.03;;;5.53;;
16193;SDS011;8204;53.582;10.080;2023-06-10T15:24:04;8.75;;;5.72;;
16193;SDS011;8204;53.582;10.080;2023-06-10T15:30:57;9.02;;;5.28;;
16193;SDS011;8204;53.582;10.080;2023-06-10T15:34:26;5.97;;;5.32;;
16193;SDS011;8204;53.582;10.080;2023-06-10T15:37:55;9.13;;;8.23;;
16193;SDS011;8204;53.582;10.080;2023-06-10T15:41:25;6.20;;;5.60;;
16193;SDS011;8204;53.582;10.080;2023-06-10T15:48:25;12.27;;;7.05;;
16193;SDS011;8204;53.582;10.080;2023-06-10T15:58:53;6.65;;;5.53;;
16193;SDS011;8204;53.582;10.080;2023-06-10T16:02:22;5.88;;;5.40;;
16193;SDS011;8204;53.582;10.080;2023-06-10T16:09:19;6.25;;;5.53;;
16193;SDS011;8204;53.582;10.080;2023-06-10T16:12:49;7.50;;;6.07;;
16193;SDS011;8204;53.582;10.080;2023-06-10T16:16:17;7.65;;;5.72;;
16193;SDS011;8204;53.582;10.080;2023-06-10T16:19:46;8.75;;;5.50;;
16193;SDS011;8204;53.582;10.080;2023-06-10T16:23:15;5.82;;;5.18;;
16193;SDS011;8204;53.582;10.080;2023-06-10T16:26:45;5.93;;;4.95;;
16193;SDS011;8204;53.582;10.080;2023-06-10T16:33:43;9.73;;;5.43;;
16193;SDS011;8204;53.582;10.080;2023-06-10T16:37:12;6.65;;;5.35;;
16193;SDS011;8204;53.582;10.080;2023-06-10T16:40:42;13.63;;;6.20;;
16193;SDS011;8204;53.582;10.080;2023-06-10T16:47:38;6.20;;;5.57;;
16193;SDS011;8204;53.582;10.080;2023-06-10T16:54:36;7.25;;;5.47;;
16193;SDS011;8204;53.582;10.080;2023-06-10T16:58:05;6.38;;;5.32;;
16193;SDS011;8204;53.582;10.080;2023-06-10T17:01:34;8.65;;;5.13;;
16193;SDS011;8204;53.582;10.080;2023-06-10T17:05:03;6.90;;;5.05;;
16193;SDS011;8204;53.582;10.080;2023-06-10T17:08:32;8.23;;;5.78;;
16193;SDS011;8204;53.582;10.080;2023-06-10T17:15:30;6.60;;;5.55;;
16193;SDS011;8204;53.582;10.080;2023-06-10T17:18:59;6.38;;;5.88;;
16193;SDS011;8204;53.582;10.080;2023-06-10T17:22:27;6.82;;;5.80;;
16193;SDS011;8204;53.582;10.080;2023-06-10T17:25:56;7.60;;;5.53;;
16193;SDS011;8204;53.582;10.080;2023-06-10T17:29:25;6.32;;;5.32;;
16193;SDS011;8204;53.582;10.080;2023-06-10T17:36:24;9.77;;;6.00;;
16193;SDS011;8204;53.582;10.080;2023-06-10T17:39:52;7.25;;;5.38;;
16193;SDS011;8204;53.582;10.080;2023-06-10T17:43:22;11.05;;;6.00;;
16193;SDS011;8204;53.582;10.080;2023-06-10T17:46:51;6.57;;;5.90;;
16193;SDS011;8204;53.582;10.080;2023-06-10T17:53:48;6.75;;;6.05;;
16193;SDS011;8204;53.582;10.080;2023-06-10T18:00:45;9.13;;;5.15;;
16193;SDS011;8204;53.582;10.080;2023-06-10T18:04:14;7.68;;;5.40;;
16193;SDS011;8204;53.582;10.080;2023-06-10T18:07:44;6.53;;;5.32;;
16193;SDS011;8204;53.582;10.080;2023-06-10T18:11:14;9.37;;;5.60;;
16193;SDS011;8204;53.582;10.080;2023-06-10T18:18:11;9.17;;;6.23;;
16193;SDS011;8204;53.582;10.080;2023-06-10T18:21:39;6.20;;;4.93;;
16193;SDS011;8204;53.582;10.080;2023-06-10T18:25:08;8.57;;;5.63;;
16193;SDS011;8204;53.582;10.080;2023-06-10T18:28:37;5.53;;;4.97;;
16193;SDS011;8204;53.582;10.080;2023-06-10T18:32:06;9.63;;;5.70;;
16193;SDS011;8204;53.582;10.080;2023-06-10T18:35:35;5.57;;;4.77;;
16193;SDS011;8204;53.582;10.080;2023-06-10T18:39:04;7.23;;;5.93;;
16193;SDS011;8204;53.582;10.080;2023-06-10T18:42:33;8.07;;;5.20;;
16193;SDS011;8204;53.582;10.080;2023-06-10T18:46:03;8.80;;;5.73;;
16193;SDS011;8204;53.582;10.080;2023-06-10T18:53:00;6.00;;;5.50;;
16193;SDS011;8204;53.582;10.080;2023-06-10T18:56:29;9.57;;;6.47;;
16193;SDS011;8204;53.582;10.080;2023-06-10T19:03:27;9.00;;;5.93;;
16193;SDS011;8204;53.582;10.080;2023-06-10T19:06:56;10.47;;;5.80;;
16193;SDS011;8204;53.582;10.080;2023-06-10T19:10:25;5.73;;;5.23;;
16193;SDS011;8204;53.582;10.080;2023-06-10T19:17:23;6.93;;;5.53;;
16193;SDS011;8204;53.582;10.080;2023-06-10T19:20:52;10.97;;;5.80;;
16193;SDS011;8204;53.582;10.080;2023-06-10T19:31:17;5.37;;;4.87;;
16193;SDS011;8204;53.582;10.080;2023-06-10T19:38:13;8.27;;;5.93;;
16193;SDS011;8204;53.582;10.080;2023-06-10T19:41:43;6.73;;;6.03;;
16193;SDS011;8204;53.582;10.080;2023-06-10T19:48:41;6.10;;;4.90;;
16193;SDS011;8204;53.582;10.080;2023-06-10T19:52:11;8.27;;;5.73;;
16193;SDS011;8204;53.582;10.080;2023-06-10T19:55:40;10.97;;;5.43;;
16193;SDS011;8204;53.582;10.080;2023-06-10T19:59:09;7.30;;;5.53;;